Similk Beach, Washington
Current Conditions -  °F | °C
As of 9:56 AM on Saturday 20 Dec 2014 (Local Time) from KNUW Reporting Station
Broken Clouds Broken Clouds  
Wind Chill: 51°   Ceiling: 4100
Heat Index: 51°   Visibility: 10mi
Dew Point: 40°   Wind: 14mph
Humidity: 66%   Direction: 120°ESE
Pressure: 29.58"   Gusts: 29mph
Location:  48.4652°N, 122.617°W
Report Text: KNUW 201756Z 12012G25KT 10SM SCT029 BKN041 BKN080 BKN200 11/04 A2958 RMK AO2 PK WND 13029/1704 SLP020 60001 T01060044 10106 20089 55008 VISNO E $
Loading
Personal Weather Stations






























Interactive Weather Map New forecast layout! Learn more

10-Day Weather Forecast

Advertisements
Track Severe Weather on mobile